createdAt,value
2018-09-26T00:02:12.306Z,11.50
2018-09-26T00:04:46.704Z,11.50
2018-09-26T00:07:15.889Z,11.50
2018-09-26T00:09:45.110Z,11.40
2018-09-26T00:12:14.300Z,11.50
2018-09-26T00:14:43.958Z,11.50
2018-09-26T00:17:13.040Z,11.50
2018-09-26T00:19:43.356Z,11.50
2018-09-26T00:22:12.455Z,11.40
2018-09-26T00:24:41.659Z,11.50
2018-09-26T00:27:10.736Z,11.50
2018-09-26T00:29:39.843Z,11.50
2018-09-26T00:32:09.675Z,11.50
2018-09-26T00:34:45.415Z,11.50
2018-09-26T00:37:15.400Z,11.40
2018-09-26T00:39:44.640Z,11.30
2018-09-26T00:42:14.323Z,11.30
2018-09-26T00:44:43.462Z,11.30
2018-09-26T00:47:12.562Z,11.30
2018-09-26T00:49:41.639Z,11.30
2018-09-26T00:52:11.338Z,11.30
2018-09-26T00:54:40.399Z,11.30
2018-09-26T00:57:09.583Z,11.40
2018-09-26T00:59:39.883Z,11.40
2018-09-26T01:02:09.527Z,11.40
2018-09-26T01:04:38.762Z,11.30
2018-09-26T01:07:07.883Z,11.30
2018-09-26T01:09:37.098Z,11.30
2018-09-26T01:12:06.262Z,11.30
2018-09-26T01:14:35.370Z,11.30
2018-09-26T01:17:04.519Z,11.30
2018-09-26T01:19:33.631Z,11.20
2018-09-26T01:22:02.732Z,11.20
2018-09-26T01:24:31.787Z,11.20
2018-09-26T01:27:00.888Z,11.20
2018-09-26T01:29:30.062Z,11.20
2018-09-26T01:31:59.211Z,11.10
2018-09-26T01:34:28.634Z,11.10
2018-09-26T01:36:57.730Z,11.10
2018-09-26T01:39:26.832Z,11.20
2018-09-26T01:41:56.006Z,11.10
2018-09-26T01:44:25.095Z,11.00
2018-09-26T01:46:54.224Z,11.00
2018-09-26T01:49:23.487Z,10.90
2018-09-26T01:51:52.549Z,11.00
2018-09-26T01:54:21.640Z,11.00
2018-09-26T01:56:51.096Z,11.00
2018-09-26T01:59:20.242Z,11.00
2018-09-26T02:01:49.332Z,10.90
2018-09-26T02:04:18.440Z,10.90
2018-09-26T02:06:48.931Z,10.80
2018-09-26T02:09:18.251Z,10.80
2018-09-26T02:11:47.333Z,10.80
2018-09-26T02:14:16.423Z,10.90
2018-09-26T02:16:46.326Z,10.90
2018-09-26T02:19:15.459Z,11.00
2018-09-26T02:21:45.217Z,10.90
2018-09-26T02:24:14.298Z,10.90
2018-09-26T02:26:43.524Z,10.90
2018-09-26T02:29:12.973Z,10.90
2018-09-26T02:31:42.088Z,10.80
2018-09-26T02:34:12.157Z,10.90
2018-09-26T02:36:41.229Z,10.80
2018-09-26T02:39:10.376Z,10.80
2018-09-26T02:41:39.832Z,10.80
2018-09-26T02:44:08.986Z,10.70
2018-09-26T02:46:39.326Z,10.70
2018-09-26T02:49:09.380Z,10.50
2018-09-26T02:51:38.569Z,10.50
2018-09-26T02:54:08.160Z,10.50
2018-09-26T02:56:37.488Z,10.40
2018-09-26T02:59:06.571Z,10.40
2018-09-26T03:01:35.667Z,10.40
2018-09-26T03:04:04.773Z,10.40
2018-09-26T03:06:33.818Z,10.40
2018-09-26T03:09:03.219Z,10.40
2018-09-26T03:11:32.410Z,10.40
2018-09-26T03:14:02.024Z,10.40
2018-09-26T03:16:31.166Z,10.50
2018-09-26T03:19:00.243Z,10.50
2018-09-26T03:21:30.015Z,10.50
2018-09-26T03:23:59.168Z,10.60
2018-09-26T03:26:28.322Z,10.60
2018-09-26T03:28:57.444Z,10.60
2018-09-26T03:31:27.831Z,10.50
2018-09-26T03:33:57.399Z,10.50
2018-09-26T03:36:26.607Z,10.50
2018-09-26T03:38:55.672Z,10.50
2018-09-26T03:41:25.222Z,10.50
2018-09-26T03:43:54.287Z,10.50
2018-09-26T03:46:23.419Z,10.60
2018-09-26T03:48:53.398Z,10.60
2018-09-26T03:51:22.522Z,10.50
2018-09-26T03:53:51.655Z,10.50
2018-09-26T03:56:21.484Z,10.40
2018-09-26T03:58:51.384Z,10.50
2018-09-26T04:01:20.967Z,10.50
2018-09-26T04:03:50.564Z,10.50
2018-09-26T04:06:19.666Z,10.40
2018-09-26T04:08:49.019Z,10.40
2018-09-26T04:11:18.109Z,10.40
2018-09-26T04:13:47.212Z,10.40
2018-09-26T04:16:16.824Z,10.40
2018-09-26T04:18:45.927Z,10.40
2018-09-26T04:21:15.127Z,10.40
2018-09-26T04:23:44.230Z,10.30
2018-09-26T04:26:13.499Z,10.30
2018-09-26T04:28:42.533Z,10.30
2018-09-26T04:31:11.656Z,10.30
2018-09-26T04:33:40.890Z,10.30
2018-09-26T04:36:09.912Z,10.30
2018-09-26T04:38:39.238Z,10.40
2018-09-26T04:41:08.206Z,10.30
2018-09-26T04:43:38.815Z,10.30
2018-09-26T04:46:08.035Z,10.30
2018-09-26T04:48:37.451Z,10.20
2018-09-26T04:51:06.695Z,10.20
2018-09-26T04:53:36.260Z,10.20
2018-09-26T04:56:05.436Z,10.20
2018-09-26T04:58:34.511Z,10.30
2018-09-26T05:01:03.630Z,10.30
2018-09-26T05:03:32.731Z,10.20
2018-09-26T05:06:01.823Z,10.10
2018-09-26T05:08:30.947Z,10.10
2018-09-26T05:11:00.207Z,10.20
2018-09-26T05:13:29.372Z,10.20
2018-09-26T05:15:58.480Z,10.20
2018-09-26T05:18:27.559Z,10.20
2018-09-26T05:20:56.713Z,10.20
2018-09-26T05:23:25.811Z,10.20
2018-09-26T05:25:55.023Z,10.20
2018-09-26T05:28:24.138Z,10.20
2018-09-26T05:30:53.230Z,10.20
2018-09-26T05:33:22.362Z,10.20
2018-09-26T05:35:51.581Z,10.10
2018-09-26T05:38:20.788Z,10.10
2018-09-26T05:40:49.994Z,10.10
2018-09-26T05:43:19.224Z,10.10
2018-09-26T05:45:49.106Z,10.10
2018-09-26T05:48:18.495Z,10.20
2018-09-26T05:50:47.595Z,10.20
2018-09-26T05:53:16.754Z,10.20
2018-09-26T05:55:45.881Z,10.20
2018-09-26T05:58:15.021Z,10.20
2018-09-26T06:00:44.172Z,10.20
2018-09-26T06:03:13.296Z,10.20
2018-09-26T06:05:42.418Z,10.30
2018-09-26T06:08:11.710Z,10.40
2018-09-26T06:10:41.032Z,10.40
2018-09-26T06:13:10.471Z,10.50
2018-09-26T06:15:40.045Z,10.50
2018-09-26T06:18:09.202Z,10.50
2018-09-26T06:20:38.333Z,10.50
2018-09-26T06:23:07.473Z,10.50
2018-09-26T06:25:36.607Z,10.60
2018-09-26T06:28:05.819Z,10.60
2018-09-26T06:30:35.656Z,10.50
2018-09-26T06:33:05.439Z,10.50
2018-09-26T06:35:34.538Z,10.60
2018-09-26T06:38:03.676Z,10.70
2018-09-26T06:40:32.822Z,10.80
2018-09-26T06:43:01.922Z,10.90
2018-09-26T06:45:31.048Z,11.00
2018-09-26T06:48:00.950Z,11.10
2018-09-26T06:50:30.047Z,11.10
2018-09-26T06:52:59.231Z,11.00
2018-09-26T06:55:28.328Z,11.10
2018-09-26T06:57:58.204Z,11.30
2018-09-26T07:00:27.374Z,11.40
2018-09-26T07:02:57.819Z,11.40
2018-09-26T07:05:26.922Z,11.40
2018-09-26T07:07:56.016Z,11.40
2018-09-26T07:10:25.176Z,11.50
2018-09-26T07:12:54.392Z,11.50
2018-09-26T07:15:24.548Z,11.50
2018-09-26T07:17:53.620Z,11.60
2018-09-26T07:20:23.120Z,11.70
2018-09-26T07:22:52.188Z,11.80
2018-09-26T07:25:21.404Z,11.90
2018-09-26T07:27:50.590Z,12.00
2018-09-26T07:30:19.660Z,12.10
2018-09-26T07:32:48.786Z,12.10
2018-09-26T07:35:18.003Z,12.10
2018-09-26T07:37:47.867Z,12.20
2018-09-26T07:40:17.975Z,12.40
2018-09-26T07:42:47.130Z,12.50
2018-09-26T07:45:16.229Z,12.60
2018-09-26T07:47:46.285Z,12.70
2018-09-26T07:50:15.395Z,12.80
2018-09-26T07:52:44.514Z,12.90
2018-09-26T07:55:13.761Z,13.00
2018-09-26T07:57:43.011Z,13.00
2018-09-26T08:00:12.092Z,13.20
2018-09-26T08:02:41.204Z,13.30
2018-09-26T08:05:11.080Z,13.40
2018-09-26T08:07:40.666Z,13.50
2018-09-26T08:10:10.866Z,13.40
2018-09-26T08:12:40.675Z,13.40
2018-09-26T08:15:09.763Z,13.40
2018-09-26T08:17:38.938Z,13.50
2018-09-26T08:20:08.115Z,13.60
2018-09-26T08:22:37.187Z,13.60
2018-09-26T08:25:06.423Z,13.70
2018-09-26T08:27:35.533Z,13.60
2018-09-26T08:30:04.790Z,13.70
2018-09-26T08:32:33.882Z,13.90
2018-09-26T08:35:03.093Z,14.20
2018-09-26T08:37:33.269Z,14.30
2018-09-26T08:40:02.356Z,14.50
2018-09-26T08:42:31.475Z,14.60
2018-09-26T08:45:00.554Z,14.70
2018-09-26T08:47:29.641Z,14.70
2018-09-26T08:49:58.739Z,14.80
2018-09-26T08:52:28.418Z,14.90
2018-09-26T08:54:57.515Z,15.10
2018-09-26T08:57:26.706Z,15.10
2018-09-26T08:59:55.816Z,15.00
2018-09-26T09:02:24.946Z,14.90
2018-09-26T09:04:54.168Z,14.90
2018-09-26T09:07:23.264Z,15.10
2018-09-26T09:09:52.372Z,15.10
2018-09-26T09:12:21.460Z,15.10
2018-09-26T09:14:50.729Z,15.30
2018-09-26T09:17:20.908Z,15.50
2018-09-26T09:19:50.123Z,15.80
2018-09-26T09:22:19.280Z,15.80
2018-09-26T09:24:48.383Z,15.80
2018-09-26T09:27:17.531Z,15.90
2018-09-26T09:29:47.995Z,16.10
2018-09-26T09:32:17.282Z,16.50
2018-09-26T09:34:46.888Z,16.40
2018-09-26T09:37:16.679Z,16.80
2018-09-26T09:39:45.927Z,17.40
2018-09-26T09:42:15.123Z,18.20
2018-09-26T09:44:45.041Z,18.90
2018-09-26T09:47:14.179Z,19.20
2018-09-26T09:49:43.323Z,19.00
2018-09-26T09:52:12.461Z,19.10
2018-09-26T09:54:41.567Z,18.90
2018-09-26T09:57:11.614Z,19.00
2018-09-26T09:59:40.812Z,19.00
2018-09-26T10:02:09.996Z,19.80
2018-09-26T10:04:38.999Z,19.90
2018-09-26T10:07:08.175Z,19.70
2018-09-26T10:09:37.353Z,20.10
2018-09-26T10:12:06.974Z,19.60
2018-09-26T10:14:36.085Z,19.30
2018-09-26T10:17:05.238Z,19.20
2018-09-26T10:19:34.255Z,19.10
2018-09-26T10:22:03.506Z,19.00
2018-09-26T10:24:32.624Z,19.60
2018-09-26T10:27:02.319Z,19.50
2018-09-26T10:29:31.346Z,19.90
2018-09-26T10:32:00.474Z,20.20
2018-09-26T10:34:29.549Z,20.00
2018-09-26T10:36:58.579Z,19.80
2018-09-26T10:39:27.607Z,19.30
2018-09-26T10:41:56.880Z,19.30
2018-09-26T10:44:25.973Z,19.20
2018-09-26T10:46:55.047Z,18.70
2018-09-26T10:49:24.138Z,18.40
2018-09-26T10:51:53.266Z,18.20
2018-09-26T10:54:22.395Z,17.90
2018-09-26T10:56:51.452Z,17.80
2018-09-26T10:59:20.512Z,18.00
2018-09-26T11:01:49.602Z,18.00
2018-09-26T11:04:18.697Z,18.10
2018-09-26T11:06:47.725Z,18.40
2018-09-26T11:09:17.676Z,18.70
2018-09-26T11:11:46.804Z,19.30
2018-09-26T11:14:15.992Z,20.20
2018-09-26T11:16:45.710Z,21.10
2018-09-26T11:19:14.767Z,21.40
2018-09-26T11:21:43.854Z,21.80
2018-09-26T11:24:12.915Z,22.20
2018-09-26T11:26:42.031Z,22.20
2018-09-26T11:29:11.060Z,22.80
2018-09-26T11:31:40.093Z,23.90
2018-09-26T11:34:09.344Z,24.70
2018-09-26T11:36:38.614Z,26.20
2018-09-26T11:39:09.152Z,26.50
2018-09-26T11:41:43.942Z,26.50
2018-09-26T11:44:13.069Z,26.60
2018-09-26T11:46:42.102Z,26.90
2018-09-26T11:49:11.896Z,28.00
2018-09-26T11:51:41.013Z,28.80
2018-09-26T11:54:10.079Z,29.30
2018-09-26T11:56:39.199Z,29.10
2018-09-26T11:59:09.590Z,29.00
2018-09-26T12:01:39.185Z,29.10
2018-09-26T12:04:08.253Z,28.70
2018-09-26T12:06:37.302Z,28.50
2018-09-26T12:09:08.155Z,27.30
2018-09-26T12:11:37.211Z,26.70
2018-09-26T12:14:06.405Z,25.50
2018-09-26T12:16:35.519Z,24.20
2018-09-26T12:19:05.059Z,23.00
2018-09-26T12:21:34.876Z,22.10
2018-09-26T12:24:04.785Z,21.40
2018-09-26T12:26:33.906Z,20.80
2018-09-26T12:29:03.028Z,20.50
2018-09-26T12:31:32.154Z,20.30
2018-09-26T12:34:01.499Z,20.10
2018-09-26T12:36:30.601Z,19.60
2018-09-26T12:38:59.715Z,19.30
2018-09-26T12:41:28.821Z,19.30
2018-09-26T12:43:58.589Z,19.30
2018-09-26T12:46:28.169Z,19.40
2018-09-26T12:48:57.414Z,19.40
2018-09-26T12:51:26.632Z,19.30
2018-09-26T12:53:55.751Z,19.30
2018-09-26T12:56:24.782Z,19.30
2018-09-26T12:58:53.889Z,19.20
2018-09-26T13:01:22.949Z,19.20
2018-09-26T13:03:52.060Z,19.30
2018-09-26T13:06:21.215Z,19.50
2018-09-26T13:08:50.262Z,19.60
2018-09-26T13:11:19.734Z,19.80
2018-09-26T13:13:48.911Z,19.90
2018-09-26T13:16:18.207Z,19.70
2018-09-26T13:18:47.419Z,19.80
2018-09-26T13:21:16.454Z,19.70
2018-09-26T13:23:46.241Z,19.50
2018-09-26T13:26:15.325Z,19.50
2018-09-26T13:28:44.380Z,19.60
2018-09-26T13:31:13.533Z,19.70
2018-09-26T13:33:42.584Z,19.70
2018-09-26T13:36:11.721Z,19.80
2018-09-26T13:38:41.108Z,20.00
2018-09-26T13:41:10.207Z,20.00
2018-09-26T13:43:39.291Z,20.00
2018-09-26T13:46:08.765Z,19.90
2018-09-26T13:48:37.779Z,20.00
2018-09-26T13:51:07.276Z,20.10
2018-09-26T13:53:36.351Z,20.30
2018-09-26T13:56:05.447Z,20.30
2018-09-26T13:58:34.497Z,20.20
2018-09-26T14:01:03.608Z,20.20
2018-09-26T14:03:32.640Z,20.00
2018-09-26T14:06:01.729Z,19.90
2018-09-26T14:08:30.857Z,20.00
2018-09-26T14:11:00.790Z,20.10
2018-09-26T14:13:29.943Z,20.20
2018-09-26T14:15:59.136Z,20.20
2018-09-26T14:18:28.867Z,20.30
2018-09-26T14:21:00.617Z,20.50
2018-09-26T14:23:29.802Z,20.60
2018-09-26T14:25:58.904Z,20.50
2018-09-26T14:28:27.960Z,20.50
2018-09-26T14:30:57.050Z,20.40
2018-09-26T14:33:26.145Z,20.50
2018-09-26T14:35:55.264Z,20.50
2018-09-26T14:38:25.094Z,20.40
2018-09-26T14:40:54.196Z,20.30
2018-09-26T14:43:23.390Z,20.30
2018-09-26T14:45:53.140Z,20.30
2018-09-26T14:48:22.135Z,20.40
2018-09-26T14:50:51.251Z,20.40
2018-09-26T14:53:20.410Z,20.40
2018-09-26T14:55:49.377Z,20.20
2018-09-26T14:58:18.587Z,20.30
2018-09-26T15:00:47.586Z,20.40
2018-09-26T15:03:16.717Z,20.30
2018-09-26T15:05:45.807Z,20.30
2018-09-26T15:08:14.960Z,20.40
2018-09-26T15:10:44.088Z,20.50
2018-09-26T15:13:13.903Z,20.40
2018-09-26T15:15:42.922Z,20.40
2018-09-26T15:18:12.036Z,20.40
2018-09-26T15:20:41.492Z,20.40
2018-09-26T15:23:11.207Z,20.30
2018-09-26T15:25:40.420Z,20.20
2018-09-26T15:28:10.373Z,20.20
2018-09-26T15:30:40.170Z,20.00
2018-09-26T15:33:09.499Z,20.00
2018-09-26T15:35:38.752Z,19.90
2018-09-26T15:38:11.324Z,19.80
2018-09-26T15:40:40.591Z,19.80
2018-09-26T15:43:09.662Z,19.70
2018-09-26T15:45:38.808Z,19.60
2018-09-26T15:48:07.970Z,19.60
2018-09-26T15:50:36.968Z,19.60
2018-09-26T15:53:06.175Z,19.60
2018-09-26T15:55:39.189Z,19.60
2018-09-26T15:58:08.249Z,19.50
2018-09-26T16:00:37.339Z,19.50
2018-09-26T16:03:06.491Z,19.40
2018-09-26T16:05:35.642Z,19.30
2018-09-26T16:08:05.422Z,19.20
2018-09-26T16:10:34.638Z,19.10
2018-09-26T16:13:03.914Z,19.10
2018-09-26T16:15:33.124Z,19.00
2018-09-26T16:18:03.657Z,19.00
2018-09-26T16:20:32.966Z,18.90
2018-09-26T16:23:02.587Z,18.90
2018-09-26T16:25:32.010Z,18.70
2018-09-26T16:28:01.100Z,18.60
2018-09-26T16:30:30.250Z,18.60
2018-09-26T16:33:00.392Z,18.60
2018-09-26T16:35:29.451Z,18.50
2018-09-26T16:37:58.572Z,18.50
2018-09-26T16:40:27.783Z,18.40
2018-09-26T16:42:56.971Z,18.30
2018-09-26T16:45:26.118Z,18.30
2018-09-26T16:47:55.192Z,18.20
2018-09-26T16:50:24.412Z,18.20
2018-09-26T16:52:53.604Z,18.20
2018-09-26T16:55:22.706Z,18.20
2018-09-26T16:57:51.781Z,18.10
2018-09-26T17:00:20.997Z,18.10
2018-09-26T17:02:50.100Z,18.00
2018-09-26T17:05:19.261Z,18.00
2018-09-26T17:07:48.426Z,17.90
2018-09-26T17:10:17.724Z,17.80
2018-09-26T17:12:46.962Z,17.90
2018-09-26T17:15:15.975Z,17.80
2018-09-26T17:17:45.101Z,17.80
2018-09-26T17:20:14.244Z,17.80
2018-09-26T17:22:44.665Z,17.70
2018-09-26T17:25:13.887Z,17.60
2018-09-26T17:27:42.958Z,17.60
2018-09-26T17:30:12.279Z,17.50
2018-09-26T17:32:41.839Z,17.40
2018-09-26T17:35:10.896Z,17.30
2018-09-26T17:37:40.221Z,17.30
2018-09-26T17:40:10.362Z,17.30
2018-09-26T17:42:39.544Z,17.20
2018-09-26T17:45:09.514Z,17.00
2018-09-26T17:47:38.642Z,17.00
2018-09-26T17:50:08.589Z,17.00
2018-09-26T17:52:37.948Z,16.80
2018-09-26T17:55:07.152Z,16.80
2018-09-26T17:57:36.221Z,16.80
2018-09-26T18:00:05.984Z,16.70
2018-09-26T18:02:35.276Z,16.70
2018-09-26T18:05:04.604Z,16.70
2018-09-26T18:07:34.365Z,16.70
2018-09-26T18:10:04.452Z,16.70
2018-09-26T18:12:34.083Z,16.70
2018-09-26T18:15:03.275Z,16.70
2018-09-26T18:17:33.108Z,16.70
2018-09-26T18:20:02.352Z,16.60
2018-09-26T18:22:31.437Z,16.50
2018-09-26T18:25:00.619Z,16.50
2018-09-26T18:27:29.971Z,16.50
2018-09-26T18:29:59.850Z,16.40
2018-09-26T18:32:29.681Z,16.40
2018-09-26T18:34:58.933Z,16.30
2018-09-26T18:37:28.703Z,16.30
2018-09-26T18:39:57.960Z,16.30
2018-09-26T18:42:27.182Z,16.20
2018-09-26T18:44:56.870Z,16.10
2018-09-26T18:47:26.715Z,16.00
2018-09-26T18:49:59.740Z,15.90
2018-09-26T18:52:28.848Z,15.90
2018-09-26T18:54:58.631Z,15.90
2018-09-26T18:57:27.732Z,15.80
2018-09-26T18:59:57.498Z,15.80
2018-09-26T19:02:27.529Z,15.80
2018-09-26T19:04:56.860Z,15.80
2018-09-26T19:07:25.931Z,15.80
2018-09-26T19:09:55.119Z,15.80
2018-09-26T19:12:25.007Z,15.70
2018-09-26T19:14:54.095Z,15.70
2018-09-26T19:17:23.168Z,15.70
2018-09-26T19:19:52.414Z,15.70
2018-09-26T19:22:21.662Z,15.70
2018-09-26T19:24:51.273Z,15.70
2018-09-26T19:27:20.979Z,15.60
2018-09-26T19:29:50.204Z,15.60
2018-09-26T19:32:19.376Z,15.60
2018-09-26T19:34:48.485Z,15.60
2018-09-26T19:37:17.746Z,15.60
2018-09-26T19:39:46.912Z,15.60
2018-09-26T19:42:20.559Z,15.60
2018-09-26T19:44:49.726Z,15.60
2018-09-26T19:47:18.880Z,15.50
2018-09-26T19:49:48.741Z,15.50
2018-09-26T19:52:18.288Z,15.50
2018-09-26T19:54:47.465Z,15.50
2018-09-26T19:57:16.658Z,15.40
2018-09-26T20:02:21.396Z,15.30
2018-09-26T20:04:50.621Z,15.30
2018-09-26T20:07:19.821Z,15.30
2018-09-26T20:09:49.063Z,15.20
2018-09-26T20:12:18.303Z,15.20
2018-09-26T20:14:49.454Z,15.30
2018-09-26T20:17:19.038Z,15.20
2018-09-26T20:19:48.291Z,15.10
2018-09-26T20:22:17.453Z,15.10
2018-09-26T20:24:46.708Z,15.00
2018-09-26T20:27:15.890Z,15.00
2018-09-26T20:29:45.279Z,15.00
2018-09-26T20:32:14.834Z,14.90
2018-09-26T20:34:44.513Z,14.80
2018-09-26T20:37:13.690Z,14.90
2018-09-26T20:39:42.782Z,14.90
2018-09-26T20:42:12.647Z,14.90
2018-09-26T20:44:42.302Z,14.90
2018-09-26T20:47:11.556Z,15.00
2018-09-26T20:49:40.653Z,15.00
2018-09-26T20:52:10.801Z,15.00
2018-09-26T20:54:39.903Z,15.00
2018-09-26T20:57:08.979Z,15.00
2018-09-26T20:59:39.333Z,15.00
2018-09-26T21:02:08.428Z,15.00
2018-09-26T21:04:38.195Z,15.00
2018-09-26T21:07:07.360Z,15.00
2018-09-26T21:09:36.483Z,15.00
2018-09-26T21:12:05.881Z,15.00
2018-09-26T21:14:34.985Z,15.00
2018-09-26T21:17:04.804Z,14.90
2018-09-26T21:19:33.895Z,14.90
2018-09-26T21:22:03.005Z,14.80
2018-09-26T21:24:32.121Z,14.80
2018-09-26T21:27:01.215Z,14.70
2018-09-26T21:29:31.616Z,14.70
2018-09-26T21:32:00.725Z,14.70
2018-09-26T21:34:29.861Z,14.60
2018-09-26T21:36:58.989Z,14.60
2018-09-26T21:39:28.014Z,14.60
2018-09-26T21:41:58.088Z,14.70
2018-09-26T21:44:27.170Z,14.60
2018-09-26T21:46:56.262Z,14.60
2018-09-26T21:49:25.327Z,14.50
2018-09-26T21:51:54.374Z,14.50
2018-09-26T21:54:23.429Z,14.50
2018-09-26T21:56:52.524Z,14.50
2018-09-26T21:59:21.632Z,14.60
2018-09-26T22:01:50.824Z,14.60
2018-09-26T22:04:20.158Z,14.60
2018-09-26T22:06:49.475Z,14.50
2018-09-26T22:09:18.676Z,14.50
2018-09-26T22:11:48.510Z,14.60
2018-09-26T22:14:18.880Z,14.60
2018-09-26T22:16:48.235Z,14.60
2018-09-26T22:19:18.891Z,14.60
2018-09-26T22:21:48.912Z,14.50
2018-09-26T22:24:18.149Z,14.50
2018-09-26T22:26:47.973Z,14.40
2018-09-26T22:29:18.095Z,14.40
2018-09-26T22:31:47.269Z,14.50
2018-09-26T22:34:17.179Z,14.50
2018-09-26T22:36:46.503Z,14.60
2018-09-26T22:39:16.757Z,14.60
2018-09-26T22:41:46.463Z,14.70
2018-09-26T22:44:15.682Z,14.60
2018-09-26T22:46:46.314Z,14.60
2018-09-26T22:49:15.642Z,14.60
2018-09-26T22:51:45.657Z,14.60
2018-09-26T22:54:14.888Z,14.60
2018-09-26T22:56:44.722Z,14.60
2018-09-26T22:59:14.069Z,14.50
2018-09-26T23:01:44.485Z,14.50
2018-09-26T23:04:13.762Z,14.40
2018-09-26T23:06:43.091Z,14.40
2018-09-26T23:09:13.094Z,14.30
2018-09-26T23:11:42.695Z,14.30
2018-09-26T23:14:12.145Z,14.30
2018-09-26T23:16:41.352Z,14.30
2018-09-26T23:19:10.832Z,14.30
2018-09-26T23:21:40.158Z,14.30
2018-09-26T23:24:09.985Z,14.30
2018-09-26T23:26:40.308Z,14.40
2018-09-26T23:29:10.320Z,14.40
2018-09-26T23:31:40.120Z,14.40
2018-09-26T23:34:09.955Z,14.40
2018-09-26T23:36:41.004Z,14.30
2018-09-26T23:39:11.194Z,14.30
2018-09-26T23:41:41.020Z,14.30
2018-09-26T23:44:10.716Z,14.30
2018-09-26T23:46:39.931Z,14.30
2018-09-26T23:49:10.118Z,14.30
2018-09-26T23:51:41.772Z,14.30
2018-09-26T23:54:12.125Z,14.20
2018-09-26T23:56:41.416Z,14.10
2018-09-26T23:59:11.758Z,14.10
